createdAt,value
2017-02-22T00:00:42.573Z,0
2017-02-22T00:01:52.752Z,0
2017-02-22T00:03:02.113Z,0
2017-02-22T00:04:13.178Z,0
2017-02-22T00:05:22.916Z,0
2017-02-22T00:06:33.113Z,0
2017-02-22T00:07:43.750Z,0
2017-02-22T00:08:53.559Z,0
2017-02-22T00:10:03.780Z,0
2017-02-22T00:11:13.980Z,0
2017-02-22T00:12:24.171Z,0
2017-02-22T00:13:33.922Z,0
2017-02-22T00:14:44.193Z,0
2017-02-22T00:15:53.494Z,0
2017-02-22T00:17:02.800Z,0
2017-02-22T00:18:12.565Z,0
2017-02-22T00:19:22.322Z,0
2017-02-22T00:20:32.130Z,0
2017-02-22T00:21:42.336Z,0
2017-02-22T00:22:51.664Z,0
2017-02-22T00:24:01.883Z,0
2017-02-22T00:25:11.654Z,0
2017-02-22T00:26:21.903Z,0
2017-02-22T00:27:32.113Z,0
2017-02-22T00:28:42.286Z,0
2017-02-22T00:29:52.033Z,0
2017-02-22T00:31:01.342Z,0
2017-02-22T00:32:11.281Z,0
2017-02-22T00:33:21.483Z,0
2017-02-22T00:34:31.229Z,0
2017-02-22T00:35:40.535Z,0
2017-02-22T00:36:49.846Z,0
2017-02-22T00:38:00.257Z,0
2017-02-22T00:39:10.452Z,0
2017-02-22T00:40:20.189Z,0
2017-02-22T00:41:30.386Z,0
2017-02-22T00:42:40.133Z,0
2017-02-22T00:43:50.366Z,0
2017-02-22T00:45:00.112Z,0
2017-02-22T00:46:09.445Z,0
2017-02-22T00:47:18.769Z,0
2017-02-22T00:48:28.535Z,0
2017-02-22T00:49:38.328Z,0
2017-02-22T00:50:48.096Z,0
2017-02-22T00:51:57.850Z,0
2017-02-22T00:53:07.186Z,0
2017-02-22T00:54:18.260Z,0
2017-02-22T00:55:28.108Z,0
2017-02-22T00:56:37.846Z,0
2017-02-22T00:57:47.588Z,0
2017-02-22T00:58:57.776Z,0
2017-02-22T01:00:07.542Z,0
2017-02-22T01:01:17.071Z,0
2017-02-22T01:02:26.836Z,0
2017-02-22T01:03:37.029Z,0
2017-02-22T01:04:47.223Z,0
2017-02-22T01:05:56.523Z,0
2017-02-22T01:07:07.197Z,0
2017-02-22T01:08:16.965Z,0
2017-02-22T01:09:26.718Z,0
2017-02-22T01:10:36.469Z,0
2017-02-22T01:11:46.259Z,0
2017-02-22T01:12:56.079Z,0
2017-02-22T01:14:05.383Z,0
2017-02-22T01:15:14.696Z,0
2017-02-22T01:16:24.015Z,0
2017-02-22T01:17:33.764Z,0
2017-02-22T01:18:43.337Z,0
2017-02-22T01:19:53.541Z,0
2017-02-22T01:21:03.735Z,0
2017-02-22T01:22:14.347Z,0
2017-02-22T01:23:24.104Z,0
2017-02-22T01:24:33.910Z,0
2017-02-22T01:25:43.696Z,0
2017-02-22T01:26:53.003Z,0
2017-02-22T01:28:02.786Z,0
2017-02-22T01:29:12.103Z,0
2017-02-22T01:30:21.911Z,0
2017-02-22T01:31:31.652Z,0
2017-02-22T01:32:41.406Z,0
2017-02-22T01:33:51.180Z,0
2017-02-22T01:35:01.369Z,0
2017-02-22T01:36:11.166Z,0
2017-02-22T01:37:20.919Z,0
2017-02-22T01:38:30.671Z,0
2017-02-22T01:39:40.424Z,0
2017-02-22T01:40:50.619Z,0
2017-02-22T01:42:00.431Z,0
2017-02-22T01:43:10.207Z,0
2017-02-22T01:44:20.442Z,0
2017-02-22T01:45:29.778Z,0
2017-02-22T01:46:39.971Z,0
2017-02-22T01:47:49.788Z,0
2017-02-22T01:48:59.543Z,0
2017-02-22T01:50:08.865Z,0
2017-02-22T01:51:18.641Z,0
2017-02-22T01:52:27.963Z,0
2017-02-22T01:53:37.320Z,0
2017-02-22T01:54:47.059Z,0
2017-02-22T01:55:57.262Z,0
2017-02-22T01:57:06.579Z,0
2017-02-22T01:58:16.329Z,0
2017-02-22T01:59:26.133Z,0
2017-02-22T02:00:35.435Z,0
2017-02-22T02:01:44.740Z,0
2017-02-22T02:02:54.061Z,0
2017-02-22T02:04:03.794Z,0
2017-02-22T02:05:13.166Z,0
2017-02-22T02:06:22.921Z,0
2017-02-22T02:07:33.097Z,0
2017-02-22T02:08:42.403Z,0
2017-02-22T02:09:52.608Z,0
2017-02-22T02:11:01.961Z,0
2017-02-22T02:12:11.710Z,0
2017-02-22T02:13:21.027Z,0
2017-02-22T02:14:31.211Z,0
2017-02-22T02:15:40.961Z,0
2017-02-22T02:16:50.323Z,0
2017-02-22T02:18:00.082Z,0
2017-02-22T02:19:09.833Z,0
2017-02-22T02:20:19.581Z,0
2017-02-22T02:21:29.758Z,0
2017-02-22T02:22:39.127Z,0
2017-02-22T02:23:49.312Z,0
2017-02-22T02:24:59.057Z,0
2017-02-22T02:26:08.395Z,0
2017-02-22T02:27:17.718Z,0
2017-02-22T02:28:27.510Z,0
2017-02-22T02:29:37.271Z,0
2017-02-22T02:30:46.590Z,0
2017-02-22T02:31:56.350Z,0
2017-02-22T02:33:06.111Z,0
2017-02-22T02:34:15.488Z,0
2017-02-22T02:35:24.814Z,0
2017-02-22T02:36:34.593Z,0
2017-02-22T02:37:44.788Z,0
2017-02-22T02:38:54.164Z,0
2017-02-22T02:40:03.701Z,0
2017-02-22T02:41:13.470Z,0
2017-02-22T02:42:23.221Z,0
2017-02-22T02:43:32.546Z,0
2017-02-22T02:44:42.319Z,0
2017-02-22T02:45:51.686Z,0
2017-02-22T02:47:01.881Z,0
2017-02-22T02:48:11.202Z,0
2017-02-22T02:49:20.531Z,0
2017-02-22T02:50:29.843Z,0
2017-02-22T02:51:39.654Z,0
2017-02-22T02:52:48.970Z,0
2017-02-22T02:53:59.160Z,0
2017-02-22T02:55:08.481Z,0
2017-02-22T02:56:18.230Z,0
2017-02-22T02:57:28.051Z,0
2017-02-22T02:58:37.372Z,0
2017-02-22T02:59:46.702Z,0
2017-02-22T03:00:56.903Z,0
2017-02-22T03:02:06.257Z,0
2017-02-22T03:03:15.626Z,0
2017-02-22T03:04:24.947Z,0
2017-02-22T03:05:34.260Z,0
2017-02-22T03:06:44.017Z,0
2017-02-22T03:07:53.339Z,0
2017-02-22T03:09:02.707Z,0
2017-02-22T03:10:12.013Z,0
2017-02-22T03:11:21.790Z,0
2017-02-22T03:12:31.138Z,0
2017-02-22T03:13:40.451Z,0
2017-02-22T03:14:50.025Z,0
2017-02-22T03:15:59.779Z,0
2017-02-22T03:17:09.087Z,0
2017-02-22T03:18:18.412Z,0
2017-02-22T03:19:27.750Z,0
2017-02-22T03:20:37.118Z,0
2017-02-22T03:21:46.472Z,0
2017-02-22T03:22:55.817Z,0
2017-02-22T03:24:05.582Z,0
2017-02-22T03:25:14.899Z,0
2017-02-22T03:26:24.275Z,0
2017-02-22T03:27:33.597Z,0
2017-02-22T03:28:42.906Z,0
2017-02-22T03:29:52.220Z,0
2017-02-22T03:31:01.991Z,0
2017-02-22T03:32:11.822Z,0
2017-02-22T03:33:21.135Z,0
2017-02-22T03:34:30.451Z,0
2017-02-22T03:35:40.221Z,0
2017-02-22T03:36:49.551Z,0
2017-02-22T03:37:58.908Z,0
2017-02-22T03:39:08.217Z,0
2017-02-22T03:40:17.961Z,0
2017-02-22T03:41:27.289Z,0
2017-02-22T03:42:36.611Z,0
2017-02-22T03:43:46.865Z,0
2017-02-22T03:44:56.170Z,0
2017-02-22T03:46:05.480Z,0
2017-02-22T03:47:15.257Z,0
2017-02-22T03:48:24.574Z,0
2017-02-22T03:49:33.931Z,0
2017-02-22T03:50:43.709Z,0
2017-02-22T03:51:53.024Z,0
2017-02-22T03:53:02.798Z,0
2017-02-22T03:54:12.132Z,0
2017-02-22T03:55:21.717Z,0
2017-02-22T03:56:31.482Z,0
2017-02-22T03:57:41.250Z,0
2017-02-22T03:58:50.995Z,0
2017-02-22T04:00:00.310Z,0
2017-02-22T04:01:09.675Z,0
2017-02-22T04:02:18.992Z,0
2017-02-22T04:03:28.762Z,0
2017-02-22T04:04:38.079Z,0
2017-02-22T04:05:48.288Z,0
2017-02-22T04:06:57.665Z,0
2017-02-22T04:08:06.970Z,0
2017-02-22T04:09:16.286Z,0
2017-02-22T04:10:25.597Z,0
2017-02-22T04:11:34.951Z,0
2017-02-22T04:12:44.350Z,0
2017-02-22T04:13:53.665Z,0
2017-02-22T04:15:03.876Z,0
2017-02-22T04:16:13.655Z,0
2017-02-22T04:17:22.972Z,0
2017-02-22T04:18:32.390Z,0
2017-02-22T04:19:42.151Z,0
2017-02-22T04:20:51.470Z,0
2017-02-22T04:22:01.237Z,0
2017-02-22T04:23:11.034Z,0
2017-02-22T04:24:20.832Z,0
2017-02-22T04:25:30.593Z,0
2017-02-22T04:26:39.904Z,0
2017-02-22T04:27:49.698Z,0
2017-02-22T04:28:59.448Z,0
2017-02-22T04:30:08.836Z,0
2017-02-22T04:31:18.587Z,0
2017-02-22T04:32:27.904Z,0
2017-02-22T04:33:37.229Z,0
2017-02-22T04:34:46.542Z,0
2017-02-22T04:35:56.356Z,0
2017-02-22T04:37:05.680Z,0
2017-02-22T04:38:15.005Z,0
2017-02-22T04:39:24.347Z,0
2017-02-22T04:40:33.673Z,0
2017-02-22T04:41:43.033Z,0
2017-02-22T04:42:52.351Z,0
2017-02-22T04:44:02.543Z,0
2017-02-22T04:45:11.873Z,0
2017-02-22T04:46:21.652Z,0
2017-02-22T04:47:31.464Z,0
2017-02-22T04:48:40.780Z,0
2017-02-22T04:49:50.102Z,0
2017-02-22T04:50:59.426Z,0
2017-02-22T04:52:08.740Z,0
2017-02-22T04:53:18.105Z,0
2017-02-22T04:54:27.430Z,0
2017-02-22T04:55:36.759Z,0
2017-02-22T04:56:46.072Z,0
2017-02-22T04:57:55.401Z,0
2017-02-22T04:59:05.648Z,0
2017-02-22T05:00:15.416Z,0
2017-02-22T05:01:24.733Z,0
2017-02-22T05:02:34.059Z,0
2017-02-22T05:03:44.716Z,0
2017-02-22T05:04:54.092Z,0
2017-02-22T05:06:03.438Z,0
2017-02-22T05:07:12.760Z,0
2017-02-22T05:08:22.508Z,0
2017-02-22T05:09:32.301Z,0
2017-02-22T05:10:42.107Z,0
2017-02-22T05:11:51.440Z,0
2017-02-22T05:13:00.749Z,0
2017-02-22T05:14:10.518Z,0
2017-02-22T05:15:20.272Z,0
2017-02-22T05:16:29.645Z,0
2017-02-22T05:17:38.954Z,0
2017-02-22T05:18:48.273Z,0
2017-02-22T05:19:58.076Z,0
2017-02-22T05:21:08.308Z,0
2017-02-22T05:22:18.275Z,0
2017-02-22T05:23:28.059Z,0
2017-02-22T05:24:37.825Z,0
2017-02-22T05:25:47.134Z,0
2017-02-22T05:26:56.911Z,0
2017-02-22T05:28:07.172Z,0
2017-02-22T05:29:16.478Z,0
2017-02-22T05:30:25.819Z,0
2017-02-22T05:31:36.032Z,0
2017-02-22T05:32:45.341Z,0
2017-02-22T05:33:55.158Z,0
2017-02-22T05:35:04.955Z,0
2017-02-22T05:36:14.277Z,0
2017-02-22T05:37:23.593Z,0
2017-02-22T05:38:33.346Z,0
2017-02-22T05:39:43.171Z,0
2017-02-22T05:40:52.485Z,0
2017-02-22T05:42:01.802Z,0
2017-02-22T05:43:11.559Z,0
2017-02-22T05:44:20.881Z,0
2017-02-22T05:45:30.289Z,0
2017-02-22T05:46:40.071Z,0
2017-02-22T05:47:49.836Z,0
2017-02-22T05:49:00.033Z,0
2017-02-22T05:50:09.794Z,0
2017-02-22T05:51:19.170Z,0
2017-02-22T05:52:28.937Z,0
2017-02-22T05:53:38.250Z,0
2017-02-22T05:54:48.455Z,0
2017-02-22T05:55:58.208Z,0
2017-02-22T05:57:08.032Z,0
2017-02-22T05:58:17.343Z,0
2017-02-22T05:59:27.100Z,0
2017-02-22T06:00:36.866Z,0
2017-02-22T06:01:46.190Z,0
2017-02-22T06:02:55.987Z,0
2017-02-22T06:04:05.321Z,0
2017-02-22T06:05:14.634Z,0
2017-02-22T06:06:24.394Z,0
2017-02-22T06:07:34.160Z,0
2017-02-22T06:08:43.555Z,0
2017-02-22T06:09:53.314Z,0
2017-02-22T06:11:02.648Z,0
2017-02-22T06:12:11.965Z,0
2017-02-22T06:13:22.174Z,0
2017-02-22T06:14:31.970Z,0
2017-02-22T06:15:41.729Z,0
2017-02-22T06:16:51.042Z,0
2017-02-22T06:18:01.241Z,0
2017-02-22T06:19:10.568Z,0
2017-02-22T06:20:19.936Z,0
2017-02-22T06:21:29.702Z,0
2017-02-22T06:22:39.023Z,0
2017-02-22T06:23:48.344Z,0
2017-02-22T06:24:57.668Z,0
2017-02-22T06:26:07.633Z,0
2017-02-22T06:27:16.960Z,0
2017-02-22T06:28:26.713Z,0
2017-02-22T06:29:36.046Z,0
2017-02-22T06:30:45.355Z,0
2017-02-22T06:31:55.164Z,0
2017-02-22T06:33:04.486Z,0
2017-02-22T06:34:13.807Z,0
2017-02-22T06:35:23.136Z,0
2017-02-22T06:36:32.885Z,0
2017-02-22T06:37:43.146Z,0
2017-02-22T06:38:52.475Z,5
2017-02-22T06:40:02.245Z,5
2017-02-22T06:41:11.558Z,5
2017-02-22T06:42:20.863Z,0
2017-02-22T06:43:30.688Z,5
2017-02-22T06:44:40.021Z,5
2017-02-22T06:45:49.798Z,0
2017-02-22T06:46:59.569Z,5
2017-02-22T06:48:08.920Z,5
2017-02-22T06:49:18.738Z,0
2017-02-22T06:50:28.087Z,0
2017-02-22T06:51:37.417Z,0
2017-02-22T06:52:46.733Z,0
2017-02-22T06:53:56.055Z,5
2017-02-22T06:55:05.427Z,0
2017-02-22T06:56:15.649Z,0
2017-02-22T06:57:24.970Z,5
2017-02-22T06:58:34.731Z,0
2017-02-22T06:59:44.045Z,0
2017-02-22T07:00:53.401Z,5
2017-02-22T07:02:03.166Z,5
2017-02-22T07:03:12.492Z,5
2017-02-22T07:04:21.837Z,5
2017-02-22T07:05:31.170Z,5
2017-02-22T07:06:40.535Z,5
2017-02-22T07:07:49.869Z,5
2017-02-22T07:08:59.613Z,10
2017-02-22T07:10:09.369Z,10
2017-02-22T07:11:19.147Z,10
2017-02-22T07:12:28.512Z,20
2017-02-22T07:13:38.715Z,20
2017-02-22T07:14:48.476Z,20
2017-02-22T07:15:58.247Z,15
2017-02-22T07:17:08.890Z,15
2017-02-22T07:18:18.694Z,15
2017-02-22T07:19:28.458Z,15
2017-02-22T07:20:38.241Z,15
2017-02-22T07:21:47.558Z,10
2017-02-22T07:22:57.330Z,20
2017-02-22T07:24:06.917Z,15
2017-02-22T07:25:17.555Z,20
2017-02-22T07:26:27.319Z,20
2017-02-22T07:27:37.515Z,10
2017-02-22T07:28:47.730Z,20
2017-02-22T07:29:57.107Z,20
2017-02-22T07:31:06.864Z,25
2017-02-22T07:32:16.193Z,20
2017-02-22T07:33:25.978Z,20
2017-02-22T07:34:35.282Z,20
2017-02-22T07:35:45.096Z,25
2017-02-22T07:36:55.294Z,15
2017-02-22T07:38:04.611Z,20
2017-02-22T07:39:13.944Z,15
2017-02-22T07:40:23.265Z,15
2017-02-22T07:41:33.182Z,20
2017-02-22T07:42:43.386Z,20
2017-02-22T07:43:53.609Z,25
2017-02-22T07:45:03.377Z,20
2017-02-22T07:46:12.695Z,15
2017-02-22T07:47:22.504Z,20
2017-02-22T07:48:31.810Z,15
2017-02-22T07:49:41.119Z,20
2017-02-22T07:50:50.896Z,25
2017-02-22T07:52:00.237Z,25
2017-02-22T07:53:09.594Z,15
2017-02-22T07:54:18.903Z,10
2017-02-22T07:55:28.669Z,10
2017-02-22T07:56:37.998Z,15
2017-02-22T07:57:47.363Z,20
2017-02-22T07:58:57.240Z,15
2017-02-22T08:00:06.610Z,20
2017-02-22T08:01:15.934Z,15
2017-02-22T08:02:25.240Z,15
2017-02-22T08:03:34.565Z,20
2017-02-22T08:04:44.362Z,15
2017-02-22T08:05:54.155Z,20
2017-02-22T08:07:03.917Z,15
2017-02-22T08:08:13.216Z,15
2017-02-22T08:09:23.423Z,20
2017-02-22T08:10:32.799Z,15
2017-02-22T08:11:42.578Z,25
2017-02-22T08:12:51.923Z,30
2017-02-22T08:14:01.260Z,25
2017-02-22T08:15:10.597Z,25
2017-02-22T08:16:20.425Z,20
2017-02-22T08:17:29.739Z,15
2017-02-22T08:18:39.492Z,20
2017-02-22T08:19:48.797Z,40
2017-02-22T08:20:58.995Z,25
2017-02-22T08:22:08.390Z,25
2017-02-22T08:23:19.032Z,30
2017-02-22T08:24:28.346Z,20
2017-02-22T08:25:37.663Z,20
2017-02-22T08:26:47.439Z,20
2017-02-22T08:27:57.263Z,15
2017-02-22T08:29:07.499Z,10
2017-02-22T08:30:17.260Z,10
2017-02-22T08:31:27.014Z,15
2017-02-22T08:32:37.662Z,20
2017-02-22T08:33:47.033Z,20
2017-02-22T08:34:56.791Z,25
2017-02-22T08:36:06.546Z,25
2017-02-22T08:37:15.887Z,25
2017-02-22T08:38:25.248Z,25
2017-02-22T08:39:34.621Z,30
2017-02-22T08:40:43.950Z,35
2017-02-22T08:41:53.271Z,30
2017-02-22T08:43:03.029Z,40
2017-02-22T08:44:12.789Z,35
2017-02-22T08:45:22.263Z,35
2017-02-22T08:46:31.601Z,30
2017-02-22T08:47:40.933Z,25
2017-02-22T08:48:50.699Z,30
2017-02-22T08:50:00.016Z,40
2017-02-22T08:51:09.382Z,40
2017-02-22T08:52:19.585Z,40
2017-02-22T08:53:29.356Z,45
2017-02-22T08:54:38.681Z,55
2017-02-22T08:55:48.006Z,50
2017-02-22T08:56:57.839Z,60
2017-02-22T08:58:07.163Z,55
2017-02-22T08:59:17.362Z,70
2017-02-22T09:00:26.678Z,50
2017-02-22T09:01:36.000Z,40
2017-02-22T09:02:45.372Z,50
2017-02-22T09:03:56.018Z,45
2017-02-22T09:05:05.395Z,40
2017-02-22T09:06:14.696Z,45
2017-02-22T09:07:24.031Z,40
2017-02-22T09:08:33.855Z,50
2017-02-22T09:09:43.632Z,50
2017-02-22T09:10:52.955Z,40
2017-02-22T09:12:02.267Z,30
2017-02-22T09:13:11.616Z,30
2017-02-22T09:14:21.603Z,50
2017-02-22T09:15:31.795Z,35
2017-02-22T09:16:42.031Z,30
2017-02-22T09:17:51.348Z,30
2017-02-22T09:19:00.686Z,25
2017-02-22T09:20:10.079Z,30
2017-02-22T09:21:19.412Z,20
2017-02-22T09:22:28.733Z,25
2017-02-22T09:23:38.059Z,30
2017-02-22T09:24:47.387Z,30
2017-02-22T09:25:56.761Z,35
2017-02-22T09:27:06.521Z,40
2017-02-22T09:28:16.280Z,35
2017-02-22T09:29:25.604Z,40
2017-02-22T09:30:34.922Z,30
2017-02-22T09:31:44.295Z,40
2017-02-22T09:32:53.608Z,45
2017-02-22T09:34:02.921Z,30
2017-02-22T09:35:12.257Z,40
2017-02-22T09:36:22.023Z,35
2017-02-22T09:37:31.413Z,35
2017-02-22T09:38:41.180Z,30
2017-02-22T09:39:50.956Z,20
2017-02-22T09:41:00.284Z,25
2017-02-22T09:42:09.593Z,20
2017-02-22T09:43:18.965Z,30
2017-02-22T09:44:28.723Z,40
2017-02-22T09:45:38.061Z,35
2017-02-22T09:46:47.826Z,55
2017-02-22T09:47:57.203Z,50
2017-02-22T09:49:07.020Z,55
2017-02-22T09:50:16.330Z,55
2017-02-22T09:51:25.655Z,60
2017-02-22T09:52:35.408Z,45
2017-02-22T09:53:45.160Z,35
2017-02-22T09:54:54.530Z,30
2017-02-22T09:56:03.871Z,50
2017-02-22T09:57:13.180Z,45
2017-02-22T09:58:23.377Z,45
2017-02-22T09:59:32.679Z,35
2017-02-22T10:00:42.056Z,55
2017-02-22T10:01:51.817Z,45
2017-02-22T10:03:01.126Z,40
2017-02-22T10:04:10.895Z,50
2017-02-22T10:05:20.248Z,40
2017-02-22T10:06:29.650Z,50
2017-02-22T10:07:39.414Z,45
2017-02-22T10:08:48.792Z,40
2017-02-22T10:09:58.583Z,45
2017-02-22T10:11:08.346Z,55
2017-02-22T10:12:17.723Z,20
2017-02-22T10:13:27.040Z,35
2017-02-22T10:14:36.825Z,30
2017-02-22T10:15:46.142Z,25
2017-02-22T10:16:55.463Z,50
2017-02-22T10:18:04.981Z,35
2017-02-22T10:19:14.317Z,40
2017-02-22T10:20:23.631Z,35
2017-02-22T10:21:33.000Z,35
2017-02-22T10:22:43.208Z,45
2017-02-22T10:23:53.457Z,50
2017-02-22T10:25:03.250Z,50
2017-02-22T10:26:13.025Z,55
2017-02-22T10:27:22.353Z,55
2017-02-22T10:28:31.679Z,35
2017-02-22T10:29:41.498Z,35
2017-02-22T10:30:51.693Z,35
2017-02-22T10:32:01.030Z,55
2017-02-22T10:33:10.807Z,65
2017-02-22T10:34:20.125Z,70
2017-02-22T10:35:29.506Z,65
2017-02-22T10:36:39.279Z,70
2017-02-22T10:37:48.616Z,75
2017-02-22T10:38:58.373Z,50
2017-02-22T10:40:07.726Z,60
2017-02-22T10:41:17.548Z,45
2017-02-22T10:42:26.880Z,60
2017-02-22T10:43:36.194Z,70
2017-02-22T10:44:45.951Z,60
2017-02-22T10:45:55.700Z,65
2017-02-22T10:47:05.981Z,50
2017-02-22T10:48:15.306Z,50
2017-02-22T10:49:24.628Z,60
2017-02-22T10:50:34.397Z,70
2017-02-22T10:51:43.705Z,60
2017-02-22T10:52:53.523Z,75
2017-02-22T10:54:02.884Z,80
2017-02-22T10:55:12.660Z,85
2017-02-22T10:56:21.991Z,65
2017-02-22T10:57:31.307Z,55
2017-02-22T10:58:41.134Z,45
2017-02-22T10:59:50.445Z,55
2017-02-22T11:00:59.763Z,40
2017-02-22T11:02:09.085Z,60
2017-02-22T11:03:18.417Z,45
2017-02-22T11:04:28.223Z,50
2017-02-22T11:05:37.980Z,45
2017-02-22T11:06:47.312Z,45
2017-02-22T11:07:57.094Z,55
2017-02-22T11:09:06.448Z,65
2017-02-22T11:10:16.259Z,75
2017-02-22T11:11:26.012Z,65
2017-02-22T11:12:35.771Z,65
2017-02-22T11:13:45.087Z,60
2017-02-22T11:14:55.749Z,85
2017-02-22T11:16:05.143Z,90
2017-02-22T11:17:14.491Z,85
2017-02-22T11:18:24.266Z,90
2017-02-22T11:19:33.586Z,75
2017-02-22T11:20:42.899Z,90
2017-02-22T11:21:52.293Z,115
2017-02-22T11:23:01.612Z,95
2017-02-22T11:24:11.399Z,105
2017-02-22T11:25:21.164Z,120
2017-02-22T11:26:30.493Z,115
2017-02-22T11:27:40.015Z,90
2017-02-22T11:28:49.331Z,65
2017-02-22T11:29:58.677Z,60
2017-02-22T11:31:08.034Z,70
2017-02-22T11:32:17.347Z,70
2017-02-22T11:33:26.721Z,80
2017-02-22T11:34:36.048Z,75
2017-02-22T11:35:45.379Z,70
2017-02-22T11:36:54.708Z,115
2017-02-22T11:38:04.053Z,95
2017-02-22T11:39:13.430Z,95
2017-02-22T11:40:22.784Z,80
2017-02-22T11:41:32.113Z,95
2017-02-22T11:42:42.326Z,95
2017-02-22T11:43:52.131Z,110
2017-02-22T11:45:01.944Z,60
2017-02-22T11:46:11.262Z,70
2017-02-22T11:47:20.587Z,105
2017-02-22T11:48:29.923Z,85
2017-02-22T11:49:39.745Z,65
2017-02-22T11:50:49.126Z,80
2017-02-22T11:51:59.332Z,85
2017-02-22T11:53:08.680Z,105
2017-02-22T11:54:18.014Z,105
2017-02-22T11:55:27.775Z,110
2017-02-22T11:56:37.140Z,95
2017-02-22T11:57:46.488Z,80
2017-02-22T11:58:55.821Z,85
2017-02-22T12:00:05.572Z,85
2017-02-22T12:01:14.913Z,85
2017-02-22T12:02:24.302Z,85
2017-02-22T12:03:34.515Z,70
2017-02-22T12:04:43.844Z,80
2017-02-22T12:05:53.169Z,110
2017-02-22T12:07:02.517Z,90
2017-02-22T12:08:12.776Z,95
2017-02-22T12:09:22.556Z,100
2017-02-22T12:10:31.874Z,100
2017-02-22T12:11:41.631Z,115
2017-02-22T12:12:50.988Z,85
2017-02-22T12:14:00.562Z,70
2017-02-22T12:15:09.931Z,80
2017-02-22T12:16:19.247Z,60
2017-02-22T12:17:29.021Z,95
2017-02-22T12:18:38.334Z,105
2017-02-22T12:19:47.724Z,110
2017-02-22T12:20:57.076Z,110
2017-02-22T12:22:06.418Z,105
2017-02-22T12:23:15.747Z,120
2017-02-22T12:24:25.087Z,110
2017-02-22T12:25:34.473Z,145
2017-02-22T12:26:44.239Z,125
2017-02-22T12:27:54.016Z,125
2017-02-22T12:29:03.352Z,135
2017-02-22T12:30:13.113Z,130
2017-02-22T12:31:22.475Z,140
2017-02-22T12:32:31.809Z,140
2017-02-22T12:33:41.130Z,135
2017-02-22T12:34:50.457Z,145
2017-02-22T12:36:00.657Z,145
2017-02-22T12:37:10.050Z,125
2017-02-22T12:38:19.831Z,110
2017-02-22T12:39:29.159Z,110
2017-02-22T12:40:38.477Z,95
2017-02-22T12:41:47.802Z,70
2017-02-22T12:42:57.611Z,100
2017-02-22T12:44:06.920Z,105
2017-02-22T12:45:16.250Z,95
2017-02-22T12:46:25.575Z,110
2017-02-22T12:47:34.903Z,140
2017-02-22T12:48:44.444Z,115
2017-02-22T12:49:53.778Z,90
2017-02-22T12:51:04.073Z,100
2017-02-22T12:52:15.311Z,105
2017-02-22T12:53:26.660Z,65
2017-02-22T12:54:37.525Z,125
2017-02-22T12:55:48.170Z,130
2017-02-22T12:56:58.229Z,95
2017-02-22T12:58:07.905Z,115
2017-02-22T12:59:17.707Z,105
2017-02-22T13:00:27.692Z,95
2017-02-22T13:01:37.616Z,95
2017-02-22T13:02:48.073Z,70
2017-02-22T13:03:58.604Z,60
2017-02-22T13:05:08.648Z,45
2017-02-22T13:06:19.549Z,85
2017-02-22T13:07:29.607Z,60
2017-02-22T13:08:40.240Z,55
2017-02-22T13:09:50.328Z,70
2017-02-22T13:11:01.303Z,65
2017-02-22T13:12:11.650Z,45
2017-02-22T13:13:21.768Z,80
2017-02-22T13:14:31.161Z,90
2017-02-22T13:15:41.347Z,60
2017-02-22T13:16:51.223Z,75
2017-02-22T13:18:01.056Z,40
2017-02-22T13:19:11.641Z,40
2017-02-22T13:20:22.673Z,50
2017-02-22T13:21:32.667Z,50
2017-02-22T13:22:42.771Z,85
2017-02-22T13:23:52.330Z,75
2017-02-22T13:25:02.381Z,70
2017-02-22T13:26:11.873Z,60
2017-02-22T13:27:21.414Z,55
2017-02-22T13:28:31.256Z,70
2017-02-22T13:29:41.188Z,70
2017-02-22T13:30:50.953Z,70
2017-02-22T13:32:00.277Z,70
2017-02-22T13:33:10.921Z,70
2017-02-22T13:34:20.254Z,85
2017-02-22T13:35:30.159Z,50
2017-02-22T13:36:39.476Z,30
2017-02-22T13:37:48.802Z,30
2017-02-22T13:38:58.127Z,50
2017-02-22T13:40:07.464Z,45
2017-02-22T13:41:17.097Z,40
2017-02-22T13:42:26.413Z,60
2017-02-22T13:43:36.210Z,70
2017-02-22T13:44:45.989Z,55
2017-02-22T13:45:55.754Z,55
2017-02-22T13:47:05.119Z,50
2017-02-22T13:48:14.428Z,50
2017-02-22T13:49:23.750Z,70
2017-02-22T13:50:33.526Z,70
2017-02-22T13:51:42.852Z,50
2017-02-22T13:52:52.221Z,50
2017-02-22T13:54:01.578Z,35
2017-02-22T13:55:10.903Z,30
2017-02-22T13:56:20.224Z,20
2017-02-22T13:57:29.660Z,40
2017-02-22T13:58:40.966Z,40
2017-02-22T13:59:52.148Z,40
2017-02-22T14:01:02.240Z,35
2017-02-22T14:02:12.040Z,25
2017-02-22T14:03:21.568Z,15
2017-02-22T14:04:32.368Z,15
2017-02-22T14:05:43.022Z,20
2017-02-22T14:06:52.367Z,15
2017-02-22T14:08:02.224Z,20
2017-02-22T14:09:11.671Z,25
2017-02-22T14:10:21.486Z,20
2017-02-22T14:11:31.461Z,25
2017-02-22T14:12:41.212Z,25
2017-02-22T14:13:50.965Z,20
2017-02-22T14:15:00.323Z,15
2017-02-22T14:16:10.008Z,15
2017-02-22T14:17:19.837Z,10
2017-02-22T14:18:30.026Z,15
2017-02-22T14:19:39.827Z,20
2017-02-22T14:20:51.636Z,20
2017-02-22T14:22:01.025Z,15
2017-02-22T14:23:11.275Z,15
2017-02-22T14:24:21.036Z,5
2017-02-22T14:25:31.333Z,5
2017-02-22T14:26:40.694Z,0
2017-02-22T14:27:50.514Z,0
2017-02-22T14:29:00.063Z,0
2017-02-22T14:30:10.994Z,0
2017-02-22T14:31:20.321Z,5
2017-02-22T14:32:30.103Z,5
2017-02-22T14:33:40.181Z,5
2017-02-22T14:34:49.550Z,10
2017-02-22T14:35:59.438Z,5
2017-02-22T14:37:09.435Z,5
2017-02-22T14:38:19.310Z,5
2017-02-22T14:39:28.691Z,5
2017-02-22T14:40:38.468Z,5
2017-02-22T14:41:48.715Z,5
2017-02-22T14:42:59.374Z,5
2017-02-22T14:44:09.150Z,5
2017-02-22T14:45:19.709Z,5
2017-02-22T14:46:29.566Z,5
2017-02-22T14:47:39.339Z,5
2017-02-22T14:48:48.716Z,5
2017-02-22T14:49:58.081Z,10
2017-02-22T14:51:07.453Z,5
2017-02-22T14:52:17.243Z,5
2017-02-22T14:53:27.157Z,5
2017-02-22T14:54:38.198Z,5
2017-02-22T14:55:47.523Z,5
2017-02-22T14:56:57.676Z,10
2017-02-22T14:58:07.581Z,10
2017-02-22T14:59:17.025Z,10
2017-02-22T15:00:26.356Z,15
2017-02-22T15:01:36.171Z,20
2017-02-22T15:02:46.636Z,15
2017-02-22T15:03:57.495Z,20
2017-02-22T15:05:07.440Z,15
2017-02-22T15:06:17.308Z,15
2017-02-22T15:07:27.135Z,15
2017-02-22T15:08:36.508Z,15
2017-02-22T15:09:46.841Z,10
2017-02-22T15:10:57.133Z,10
2017-02-22T15:12:07.127Z,5
2017-02-22T15:13:17.016Z,10
2017-02-22T15:14:27.462Z,10
2017-02-22T15:15:38.015Z,15
2017-02-22T15:16:47.784Z,15
2017-02-22T15:17:57.172Z,15
2017-02-22T15:19:07.146Z,20
2017-02-22T15:20:17.599Z,15
2017-02-22T15:21:27.453Z,10
2017-02-22T15:22:37.666Z,5
2017-02-22T15:23:47.562Z,5
2017-02-22T15:24:57.795Z,5
2017-02-22T15:26:08.253Z,5
2017-02-22T15:27:18.293Z,5
2017-02-22T15:28:28.064Z,5
2017-02-22T15:29:37.793Z,5
2017-02-22T15:30:47.566Z,5
2017-02-22T15:31:57.819Z,10
2017-02-22T15:33:07.284Z,10
2017-02-22T15:34:17.585Z,10
2017-02-22T15:35:27.299Z,10
2017-02-22T15:36:37.024Z,10
2017-02-22T15:37:48.004Z,10
2017-02-22T15:38:57.759Z,5
2017-02-22T15:40:07.519Z,5
2017-02-22T15:41:17.495Z,10
2017-02-22T15:42:27.246Z,5
2017-02-22T15:43:36.622Z,5
2017-02-22T15:44:47.510Z,5
2017-02-22T15:45:57.324Z,5
2017-02-22T15:47:07.691Z,5
2017-02-22T15:48:18.115Z,5
2017-02-22T15:49:28.375Z,5
2017-02-22T15:50:37.706Z,5
2017-02-22T15:51:48.367Z,0
2017-02-22T15:52:59.304Z,0
2017-02-22T15:54:08.908Z,0
2017-02-22T15:55:18.290Z,0
2017-02-22T15:56:28.492Z,0
2017-02-22T15:57:38.881Z,0
2017-02-22T15:58:48.610Z,0
2017-02-22T15:59:58.043Z,0
2017-02-22T16:01:08.401Z,0
2017-02-22T16:02:18.352Z,0
2017-02-22T16:03:28.147Z,0
2017-02-22T16:04:37.464Z,0
2017-02-22T16:05:47.678Z,0
2017-02-22T16:06:57.620Z,0
2017-02-22T16:08:07.590Z,0
2017-02-22T16:09:17.149Z,0
2017-02-22T16:10:27.616Z,0
2017-02-22T16:11:37.416Z,0
2017-02-22T16:12:47.681Z,0
2017-02-22T16:13:57.454Z,0
2017-02-22T16:15:06.787Z,0
2017-02-22T16:16:16.146Z,0
2017-02-22T16:17:25.460Z,0
2017-02-22T16:18:36.165Z,0
2017-02-22T16:19:45.952Z,0
2017-02-22T16:20:55.721Z,0
2017-02-22T16:22:05.480Z,0
2017-02-22T16:23:15.231Z,0
2017-02-22T16:24:24.600Z,0
2017-02-22T16:25:34.370Z,0
2017-02-22T16:26:43.695Z,0
2017-02-22T16:27:53.032Z,0
2017-02-22T16:29:02.789Z,0
2017-02-22T16:30:12.185Z,0
2017-02-22T16:31:21.519Z,0
2017-02-22T16:32:30.836Z,0
2017-02-22T16:33:40.638Z,0
2017-02-22T16:34:49.979Z,0
2017-02-22T16:35:59.382Z,0
2017-02-22T16:37:09.615Z,0
2017-02-22T16:38:19.366Z,0
2017-02-22T16:39:29.119Z,0
2017-02-22T16:40:38.889Z,0
2017-02-22T16:41:48.277Z,0
2017-02-22T16:42:58.034Z,0
2017-02-22T16:44:07.356Z,0
2017-02-22T16:45:16.689Z,0
2017-02-22T16:46:26.879Z,0
2017-02-22T16:47:36.312Z,0
2017-02-22T16:48:45.629Z,0
2017-02-22T16:49:54.996Z,0
2017-02-22T16:51:04.785Z,0